Inverness, CA

5:13 PM PDT on October 01, 2014 (GMT -0700)
MesoWest PT REYES RCA CA US DRI | Change Station
CLOSE
Current Station
Personal Weather Station
Location: Inverness, CA
Elevation: 86 ft
Nearby Weather Stations
Active Advisory: Heat Advisory

Elev 86 ft 38.09 °N, 122.95 °W | Updated 53 minutes ago

Clear
Clear
65 °F
Feels Like 65 °F
N
7
Wind Variable Wind from NW
Gusts 10.0 mph

Today
High -- | Low -- °F
--% Chance of Precip.
Yesterday
High -- | Low -- °F
Precip. -- in
7:07 AM 6:54 PM
First Quarter, 52% visible
Pressure 29.89 in
Visibility 10.0 miles
Clouds Clear
Dew Point 55 °F
Humidity 70%
Rainfall -999.00 in
Snow Depth 0 in , 0 in , 0 in
UV 2 out of 12
Pollen 3.60 out of 12
Air Quality Not available.
Flu Activity Not available.
METAR KO69 012355Z AUTO 25009KT 10SM CLR 28/03 A2989 RMK AO1

More Conditions Fewer Conditions

Pressure 29.89 in
Visibility 10.0 miles
Clouds Clear
Dew Point 55 °F
Humidity 70%
Rainfall -999.00 in
Snow Depth 0 in , 0 in , 0 in
UV 2 out of 12
Pollen 3.60 out of 12
Air Quality Not available.
Flu Activity Not available.
METAR KO69 012355Z AUTO 25009KT 10SM CLR 28/03 A2989 RMK AO1

More Conditions Fewer Conditions

10-Day Weather Forecast

Almanac

Astronomy

Oct. 01, 2014 Rise Set
Actual Time 7:07 AM PDT 6:54 PM PDT
Civil Twilight 6:41 AM PDT 7:21 PM PDT
Nautical Twilight 6:11 AM PDT 7:51 PM PDT
Astronomical Twilight 5:40 AM PDT 8:22 PM PDT
Moon 2:09 PM PDT (10/1) No Moon Set
Length of Visible Light 12h 39m
Length of Day
11h 47m
Tomorrow will be 2m 25s shorter.
First Quarter, 52% of the Moon is Illuminated
Today
First Quarter
Oct 8
Full
Oct 15
Last Quarter
Oct 23
New
Oct 30
First Quarter

Today's Extremes

State Highs State Lows

Community

WunderPhotos

Upload Photos

1,758,097 photos uploaded!

WunderBlogs® & News

Nearby

Snow Depth

Station Depth Elevation
Spratt Creek 0 in 6200 ft
Adin Mountain 0 in 6200 ft
Burnside Lake 0 in 8139 ft
CSS Lab 1 in 6900 ft

Earthquake Activity

City Distance Mag. Time & Date
East Foothills, California 76 miles 2.6 3:34 PM PDT
2014-09-30
Minimum magnitude displayed is 2.5.

Coastal Water Temperatures

Place Temperature
Point Reyes, CA 60.1 °F
Arena Cove, CA 55.0 °F
San Francisco, CA 64.0 °F
Richmond, CA 66.9 °F

Nearby Weather Stations